createdAt,value
2022-10-29T00:01:02.159Z,99195.00
2022-10-29T00:03:29.414Z,99189.00
2022-10-29T00:06:12.643Z,99182.00
2022-10-29T00:08:41.724Z,99184.00
2022-10-29T00:11:22.879Z,99183.00
2022-10-29T00:14:00.922Z,99194.00
2022-10-29T00:16:39.831Z,99180.00
2022-10-29T00:19:07.444Z,99178.00
2022-10-29T00:21:35.022Z,99179.00
2022-10-29T00:24:02.304Z,99175.00
2022-10-29T00:26:31.371Z,99173.00
2022-10-29T00:28:58.934Z,99172.00
2022-10-29T00:31:26.632Z,99188.00
2022-10-29T00:33:55.612Z,99181.00
2022-10-29T00:36:29.865Z,99179.00
2022-10-29T00:38:57.769Z,99176.00
2022-10-29T00:41:30.211Z,99169.00
2022-10-29T00:44:24.762Z,99177.00
2022-10-29T00:47:18.834Z,99173.00
2022-10-29T00:50:12.330Z,99170.00
2022-10-29T00:52:47.290Z,99157.00
2022-10-29T00:55:16.342Z,99176.00
2022-10-29T00:57:53.605Z,99163.00
2022-10-29T01:00:22.027Z,99161.00
2022-10-29T01:02:49.906Z,99167.00
2022-10-29T01:05:24.026Z,99171.00
2022-10-29T01:07:51.419Z,99171.00
2022-10-29T01:11:23.829Z,99178.00
2022-10-29T01:15:00.997Z,99172.00
2022-10-29T01:18:04.276Z,99164.00
2022-10-29T01:21:33.299Z,99164.00
2022-10-29T01:24:47.634Z,99162.00
2022-10-29T01:28:12.559Z,99169.00
2022-10-29T01:31:45.762Z,99158.00
2022-10-29T01:34:57.229Z,99152.00
2022-10-29T01:37:54.883Z,99146.00
2022-10-29T01:40:40.023Z,99154.00
2022-10-29T01:46:56.379Z,99153.00
2022-10-29T01:49:39.820Z,99155.00
2022-10-29T01:52:13.805Z,99133.00
2022-10-29T01:54:47.978Z,99147.00
2022-10-29T01:57:38.846Z,99137.00
2022-10-29T02:00:17.757Z,99140.00
2022-10-29T02:03:45.501Z,99136.00
2022-10-29T02:06:41.429Z,99142.00
2022-10-29T02:09:51.641Z,99126.00
2022-10-29T02:12:57.154Z,99123.00
2022-10-29T02:15:48.364Z,99127.00
2022-10-29T02:18:18.425Z,99135.00
2022-10-29T02:20:47.144Z,99132.00
2022-10-29T02:23:16.336Z,99125.00
2022-10-29T02:25:43.976Z,99121.00
2022-10-29T02:28:11.367Z,99123.00
2022-10-29T02:30:38.806Z,99116.00
2022-10-29T02:33:06.084Z,99112.00
2022-10-29T02:35:33.373Z,99115.00
2022-10-29T02:38:00.642Z,99109.00
2022-10-29T02:40:27.907Z,99112.00
2022-10-29T02:42:55.691Z,99109.00
2022-10-29T02:45:23.129Z,99114.00
2022-10-29T02:47:51.192Z,99111.00
2022-10-29T02:50:18.483Z,99112.00
2022-10-29T02:52:45.742Z,99112.00
2022-10-29T02:55:13.026Z,99109.00
2022-10-29T02:57:43.341Z,99101.00
2022-10-29T03:00:13.093Z,99101.00
2022-10-29T03:02:40.836Z,99099.00
2022-10-29T03:05:09.099Z,99101.00
2022-10-29T03:07:39.694Z,99099.00
2022-10-29T03:10:08.463Z,99085.00
2022-10-29T03:12:35.722Z,99086.00
2022-10-29T03:15:03.127Z,99087.00
2022-10-29T03:17:30.636Z,99081.00
2022-10-29T03:19:57.886Z,99083.00
2022-10-29T03:22:26.566Z,99082.00
2022-10-29T03:24:53.810Z,99069.00
2022-10-29T03:27:21.072Z,99082.00
2022-10-29T03:29:48.425Z,99082.00
2022-10-29T03:32:15.691Z,99077.00
2022-10-29T03:34:42.973Z,99083.00
2022-10-29T03:37:10.294Z,99074.00
2022-10-29T03:39:37.627Z,99074.00
2022-10-29T03:42:05.179Z,99077.00
2022-10-29T03:44:32.675Z,99069.00
2022-10-29T03:46:59.931Z,99062.00
2022-10-29T03:49:27.188Z,99073.00
2022-10-29T03:51:55.268Z,99076.00
2022-10-29T03:54:22.580Z,99077.00
2022-10-29T03:56:49.866Z,99067.00
2022-10-29T03:59:17.935Z,99071.00
2022-10-29T04:01:45.309Z,99070.00
2022-10-29T04:04:12.795Z,99075.00
2022-10-29T04:06:40.104Z,99069.00
2022-10-29T04:09:07.459Z,99075.00
2022-10-29T04:11:34.730Z,99066.00
2022-10-29T04:14:01.990Z,99066.00
2022-10-29T04:16:29.246Z,99068.00
2022-10-29T04:18:56.543Z,99075.00
2022-10-29T04:28:36.913Z,99069.00
2022-10-29T04:29:48.740Z,99067.00
2022-10-29T04:32:16.102Z,99072.00
2022-10-29T04:34:43.361Z,99071.00
2022-10-29T04:37:10.613Z,99072.00
2022-10-29T04:39:37.871Z,99075.00
2022-10-29T04:42:05.226Z,99078.00
2022-10-29T04:44:32.513Z,99079.00
2022-10-29T04:46:59.770Z,99078.00
2022-10-29T04:49:27.117Z,99086.00
2022-10-29T04:51:54.414Z,99075.00
2022-10-29T04:54:21.703Z,99081.00
2022-10-29T04:56:48.976Z,99079.00
2022-10-29T04:59:16.243Z,99081.00
2022-10-29T05:01:43.628Z,99077.00
2022-10-29T05:04:10.967Z,99080.00
2022-10-29T05:06:38.245Z,99078.00
2022-10-29T05:09:05.895Z,99073.00
2022-10-29T05:11:33.180Z,99064.00
2022-10-29T05:14:00.457Z,99063.00
2022-10-29T05:16:27.730Z,99066.00
2022-10-29T05:18:54.995Z,99060.00
2022-10-29T05:21:22.270Z,99060.00
2022-10-29T05:23:49.523Z,99050.00
2022-10-29T05:26:17.696Z,99055.00
2022-10-29T05:28:44.990Z,99032.00
2022-10-29T05:31:13.406Z,99038.00
2022-10-29T05:33:40.723Z,99037.00
2022-10-29T05:36:08.261Z,99037.00
2022-10-29T05:38:35.744Z,99035.00
2022-10-29T05:41:03.088Z,99039.00
2022-10-29T05:43:30.544Z,99032.00
2022-10-29T05:45:57.831Z,99032.00
2022-10-29T05:48:25.106Z,99038.00
2022-10-29T05:50:52.369Z,99033.00
2022-10-29T05:53:20.441Z,99032.00
2022-10-29T05:55:47.738Z,99038.00
2022-10-29T05:58:15.055Z,99035.00
2022-10-29T06:00:45.562Z,99036.00
2022-10-29T06:03:18.833Z,99037.00
2022-10-29T06:05:49.245Z,99034.00
2022-10-29T06:08:18.096Z,99032.00
2022-10-29T06:10:45.463Z,99032.00
2022-10-29T06:13:22.170Z,99034.00
2022-10-29T06:15:51.007Z,99028.00
2022-10-29T06:18:18.299Z,99032.00
2022-10-29T06:20:45.610Z,99024.00
2022-10-29T06:23:12.997Z,99029.00
2022-10-29T06:25:40.479Z,99026.00
2022-10-29T06:28:15.067Z,99018.00
2022-10-29T06:30:48.451Z,99021.00
2022-10-29T06:33:20.449Z,99023.00
2022-10-29T06:35:48.073Z,99032.00
2022-10-29T06:38:15.917Z,99031.00
2022-10-29T06:40:44.495Z,99028.00
2022-10-29T06:43:12.873Z,99033.00
2022-10-29T06:45:40.281Z,99030.00
2022-10-29T06:48:08.009Z,99036.00
2022-10-29T06:50:35.326Z,99034.00
2022-10-29T06:53:07.406Z,99034.00
2022-10-29T06:55:35.773Z,99037.00
2022-10-29T06:58:18.155Z,99036.00
2022-10-29T07:00:46.567Z,99041.00
2022-10-29T07:03:17.506Z,99035.00
2022-10-29T07:05:45.182Z,99034.00
2022-10-29T07:08:13.096Z,99028.00
2022-10-29T07:10:41.368Z,99035.00
2022-10-29T07:13:09.514Z,99039.00
2022-10-29T07:15:36.774Z,99038.00
2022-10-29T07:18:09.526Z,99047.00
2022-10-29T07:20:44.856Z,99021.00
2022-10-29T07:23:13.623Z,99048.00
2022-10-29T07:25:45.145Z,99041.00
2022-10-29T07:28:24.142Z,99047.00
2022-10-29T07:30:53.102Z,99049.00
2022-10-29T07:33:20.396Z,99051.00
2022-10-29T07:35:47.646Z,99043.00
2022-10-29T07:38:14.957Z,99050.00
2022-10-29T07:40:50.202Z,99050.00
2022-10-29T07:43:19.885Z,99051.00
2022-10-29T07:45:50.916Z,99056.00
2022-10-29T07:48:20.836Z,99057.00
2022-10-29T07:50:49.027Z,99055.00
2022-10-29T07:53:16.558Z,99059.00
2022-10-29T07:55:43.823Z,99050.00
2022-10-29T07:58:12.921Z,99055.00
2022-10-29T08:00:41.518Z,99037.00
2022-10-29T08:03:11.877Z,99058.00
2022-10-29T08:05:42.288Z,99056.00
2022-10-29T08:08:11.028Z,99052.00
2022-10-29T08:10:38.330Z,99047.00
2022-10-29T08:13:07.128Z,99053.00
2022-10-29T08:15:36.347Z,99040.00
2022-10-29T08:18:16.514Z,99040.00
2022-10-29T08:20:44.279Z,99035.00
2022-10-29T08:23:12.781Z,99038.00
2022-10-29T08:25:43.756Z,99049.00
2022-10-29T08:28:15.787Z,99033.00
2022-10-29T08:30:50.691Z,99030.00
2022-10-29T08:33:18.612Z,99032.00
2022-10-29T08:35:46.011Z,99026.00
2022-10-29T08:38:13.575Z,99035.00
2022-10-29T08:41:06.259Z,99023.00
2022-10-29T08:43:55.351Z,99012.00
2022-10-29T08:46:56.387Z,99023.00
2022-10-29T08:50:16.066Z,99032.00
2022-10-29T08:52:53.047Z,99021.00
2022-10-29T08:55:35.738Z,99029.00
2022-10-29T08:58:40.997Z,99024.00
2022-10-29T09:01:12.383Z,99024.00
2022-10-29T09:03:39.867Z,99027.00
2022-10-29T09:07:14.709Z,99028.00
2022-10-29T09:10:04.239Z,99020.00
2022-10-29T09:13:35.054Z,99027.00
2022-10-29T09:16:33.447Z,99023.00
2022-10-29T09:19:39.480Z,99027.00
2022-10-29T09:22:27.812Z,99036.00
2022-10-29T09:25:38.410Z,99034.00
2022-10-29T09:28:43.063Z,99042.00
2022-10-29T09:31:53.599Z,99047.00
2022-10-29T09:34:51.709Z,99054.00
2022-10-29T09:37:53.335Z,99057.00
2022-10-29T09:40:34.317Z,99058.00
2022-10-29T09:43:37.694Z,99062.00
2022-10-29T09:46:21.319Z,99048.00
2022-10-29T09:49:10.099Z,99053.00
2022-10-29T09:52:19.155Z,99043.00
2022-10-29T09:54:50.138Z,99051.00
2022-10-29T09:57:30.755Z,99056.00
2022-10-29T10:00:17.416Z,99056.00
2022-10-29T10:03:16.101Z,99047.00
2022-10-29T10:06:04.667Z,99056.00
2022-10-29T10:08:34.504Z,99052.00
2022-10-29T10:11:08.119Z,99050.00
2022-10-29T10:13:51.692Z,99055.00
2022-10-29T10:16:30.155Z,99039.00
2022-10-29T10:18:57.484Z,99042.00
2022-10-29T10:21:32.178Z,99050.00
2022-10-29T10:24:01.215Z,99050.00
2022-10-29T10:26:44.981Z,99051.00
2022-10-29T10:29:20.942Z,99042.00
2022-10-29T10:31:55.375Z,99041.00
2022-10-29T10:34:38.961Z,99040.00
2022-10-29T10:37:10.834Z,99039.00
2022-10-29T10:40:03.293Z,99032.00
2022-10-29T10:42:39.361Z,99031.00
2022-10-29T10:45:40.093Z,99030.00
2022-10-29T10:48:12.775Z,99019.00
2022-10-29T10:50:40.074Z,99020.00
2022-10-29T10:53:21.484Z,99009.00
2022-10-29T10:55:57.965Z,99017.00
2022-10-29T10:58:45.079Z,99017.00
2022-10-29T11:01:48.032Z,99010.00
2022-10-29T11:04:32.045Z,99011.00
2022-10-29T11:07:07.989Z,99005.00
2022-10-29T11:09:45.504Z,99003.00
2022-10-29T11:12:40.103Z,98996.00
2022-10-29T11:15:39.355Z,98988.00
2022-10-29T11:19:01.038Z,98991.00
2022-10-29T11:22:20.464Z,98990.00
2022-10-29T11:25:44.367Z,98982.00
2022-10-29T11:28:50.357Z,98989.00
2022-10-29T11:32:16.866Z,98984.00
2022-10-29T11:35:13.084Z,98987.00
2022-10-29T11:38:10.853Z,98977.00
2022-10-29T11:41:45.919Z,98978.00
2022-10-29T11:44:17.927Z,98977.00
2022-10-29T11:47:34.948Z,98970.00
2022-10-29T11:50:49.693Z,98974.00
2022-10-29T11:53:45.073Z,98957.00
2022-10-29T11:57:16.721Z,98965.00
2022-10-29T12:00:27.374Z,98953.00
2022-10-29T12:04:33.118Z,98940.00
2022-10-29T12:07:39.032Z,98950.00
2022-10-29T12:10:52.150Z,98941.00
2022-10-29T12:14:19.031Z,98944.00
2022-10-29T12:17:28.322Z,98939.00
2022-10-29T12:20:54.262Z,98931.00
2022-10-29T12:24:07.246Z,98932.00
2022-10-29T12:27:30.039Z,98923.00
2022-10-29T12:30:09.951Z,98923.00
2022-10-29T12:33:48.212Z,98922.00
2022-10-29T12:36:55.070Z,98913.00
2022-10-29T12:39:44.951Z,98923.00
2022-10-29T12:42:25.674Z,98914.00
2022-10-29T12:45:27.626Z,98911.00
2022-10-29T12:48:27.659Z,98915.00
2022-10-29T12:51:19.866Z,98910.00
2022-10-29T12:54:39.969Z,98907.00
2022-10-29T12:57:13.230Z,98896.00
2022-10-29T12:59:43.198Z,98910.00
2022-10-29T13:02:38.132Z,98910.00
2022-10-29T13:05:11.395Z,98906.00
2022-10-29T13:08:04.917Z,98894.00
2022-10-29T13:10:34.677Z,98897.00
2022-10-29T13:13:19.980Z,98892.00
2022-10-29T13:16:15.844Z,98888.00
2022-10-29T13:19:35.281Z,98886.00
2022-10-29T13:22:51.001Z,98874.00
2022-10-29T13:25:36.511Z,98877.00
2022-10-29T13:28:09.694Z,98877.00
2022-10-29T13:30:43.343Z,98881.00
2022-10-29T13:33:28.285Z,98887.00
2022-10-29T13:36:18.043Z,98881.00
2022-10-29T13:39:07.754Z,98875.00
2022-10-29T13:41:56.003Z,98872.00
2022-10-29T13:44:26.825Z,98872.00
2022-10-29T13:47:20.254Z,98869.00
2022-10-29T13:49:49.671Z,98859.00
2022-10-29T13:52:24.894Z,98865.00
2022-10-29T13:55:09.547Z,98859.00
2022-10-29T13:58:35.703Z,98864.00
2022-10-29T14:01:17.872Z,98859.00
2022-10-29T14:04:24.016Z,98867.00
2022-10-29T14:06:54.548Z,98867.00
2022-10-29T14:09:43.769Z,98859.00
2022-10-29T14:12:22.615Z,98856.00
2022-10-29T14:15:10.245Z,98846.00
2022-10-29T14:17:37.551Z,98855.00
2022-10-29T14:20:05.560Z,98854.00
2022-10-29T14:22:40.670Z,98845.00
2022-10-29T14:25:35.869Z,98845.00
2022-10-29T14:28:31.531Z,98851.00
2022-10-29T14:31:22.827Z,98856.00
2022-10-29T14:33:59.453Z,98849.00
2022-10-29T14:36:44.149Z,98856.00
2022-10-29T14:39:32.588Z,98841.00
2022-10-29T14:42:32.767Z,98835.00
2022-10-29T14:45:28.767Z,98834.00
2022-10-29T14:48:08.927Z,98836.00
2022-10-29T14:50:36.918Z,98839.00
2022-10-29T14:53:33.758Z,98849.00
2022-10-29T14:56:11.115Z,98842.00
2022-10-29T14:58:40.967Z,98836.00
2022-10-29T15:01:21.274Z,98838.00
2022-10-29T15:03:56.041Z,98839.00
2022-10-29T15:06:29.980Z,98836.00
2022-10-29T15:09:03.807Z,98835.00
2022-10-29T15:12:18.011Z,98842.00
2022-10-29T15:14:54.011Z,98841.00
2022-10-29T15:17:30.614Z,98841.00
2022-10-29T15:20:06.780Z,98835.00
2022-10-29T15:22:42.721Z,98834.00
2022-10-29T15:25:36.759Z,98833.00
2022-10-29T15:28:10.043Z,98836.00
2022-10-29T15:30:38.976Z,98836.00
2022-10-29T15:33:16.396Z,98836.00
2022-10-29T15:35:55.109Z,98834.00
2022-10-29T15:38:31.440Z,98835.00
2022-10-29T15:41:39.006Z,98831.00
2022-10-29T15:44:40.679Z,98827.00
2022-10-29T15:47:49.362Z,98831.00
2022-10-29T15:50:40.441Z,98830.00
2022-10-29T15:53:16.259Z,98825.00
2022-10-29T15:55:44.333Z,98837.00
2022-10-29T15:58:23.351Z,98825.00
2022-10-29T16:00:51.863Z,98826.00
2022-10-29T16:03:27.385Z,98835.00
2022-10-29T16:06:04.983Z,98833.00
2022-10-29T16:08:44.383Z,98830.00
2022-10-29T16:11:20.962Z,98833.00
2022-10-29T16:13:55.292Z,98832.00
2022-10-29T16:16:26.422Z,98836.00
2022-10-29T16:18:54.540Z,98837.00
2022-10-29T16:21:26.388Z,98829.00
2022-10-29T16:23:54.104Z,98829.00
2022-10-29T16:26:25.305Z,98825.00
2022-10-29T16:28:54.050Z,98833.00
2022-10-29T16:31:28.470Z,98831.00
2022-10-29T16:34:00.021Z,98826.00
2022-10-29T16:36:27.307Z,98830.00
2022-10-29T16:38:54.583Z,98827.00
2022-10-29T16:41:22.194Z,98829.00
2022-10-29T16:43:49.600Z,98826.00
2022-10-29T16:46:16.901Z,98824.00
2022-10-29T16:48:45.566Z,98833.00
2022-10-29T16:51:12.972Z,98842.00
2022-10-29T16:53:40.264Z,98833.00
2022-10-29T16:56:08.078Z,98839.00
2022-10-29T16:58:35.336Z,98837.00
2022-10-29T17:01:10.447Z,98830.00
2022-10-29T17:03:39.156Z,98838.00
2022-10-29T17:06:10.679Z,98843.00
2022-10-29T17:08:38.680Z,98841.00
2022-10-29T17:11:10.040Z,98837.00
2022-10-29T17:13:38.263Z,98841.00
2022-10-29T17:16:16.597Z,98843.00
2022-10-29T17:18:43.917Z,98839.00
2022-10-29T17:21:11.304Z,98844.00
2022-10-29T17:23:39.401Z,98840.00
2022-10-29T17:26:06.655Z,98843.00
2022-10-29T17:28:36.557Z,98845.00
2022-10-29T17:31:10.047Z,98844.00
2022-10-29T17:33:37.701Z,98849.00
2022-10-29T17:36:15.632Z,98844.00
2022-10-29T17:38:42.912Z,98849.00
2022-10-29T17:41:10.432Z,98856.00
2022-10-29T17:43:37.826Z,98850.00
2022-10-29T17:46:05.578Z,98852.00
2022-10-29T17:48:33.936Z,98858.00
2022-10-29T17:51:03.148Z,98855.00
2022-10-29T17:53:31.475Z,98859.00
2022-10-29T17:56:01.905Z,98853.00
2022-10-29T17:58:29.138Z,98864.00
2022-10-29T18:01:03.642Z,98870.00
2022-10-29T18:03:30.998Z,98866.00
2022-10-29T18:06:09.749Z,98857.00
2022-10-29T18:08:40.310Z,98860.00
2022-10-29T18:11:20.037Z,98865.00
2022-10-29T18:13:50.415Z,98867.00
2022-10-29T18:16:26.226Z,98864.00
2022-10-29T18:19:02.780Z,98854.00
2022-10-29T18:21:31.816Z,98856.00
2022-10-29T18:23:59.156Z,98859.00
2022-10-29T18:26:34.725Z,98861.00
2022-10-29T18:29:10.433Z,98860.00
2022-10-29T18:31:40.173Z,98860.00
2022-10-29T18:34:07.970Z,98860.00
2022-10-29T18:36:36.761Z,98865.00
2022-10-29T18:39:06.500Z,98865.00
2022-10-29T18:41:36.100Z,98865.00
2022-10-29T18:44:07.143Z,98865.00
2022-10-29T18:46:34.482Z,98869.00
2022-10-29T18:49:01.888Z,98862.00
2022-10-29T18:51:32.980Z,98866.00
2022-10-29T18:54:00.681Z,98870.00
2022-10-29T18:56:30.136Z,98865.00
2022-10-29T18:58:59.278Z,98864.00
2022-10-29T19:01:34.944Z,98867.00
2022-10-29T19:04:08.031Z,98863.00
2022-10-29T19:06:37.463Z,98874.00
2022-10-29T19:09:09.303Z,98886.00
2022-10-29T19:11:37.130Z,98872.00
2022-10-29T19:14:11.555Z,98885.00
2022-10-29T19:16:38.863Z,98875.00
2022-10-29T19:19:16.136Z,98880.00
2022-10-29T19:21:45.876Z,98885.00
2022-10-29T19:24:16.090Z,98890.00
2022-10-29T19:26:44.201Z,98891.00
2022-10-29T19:29:12.172Z,98904.00
2022-10-29T19:31:40.411Z,98898.00
2022-10-29T19:34:08.578Z,98903.00
2022-10-29T19:36:37.608Z,98913.00
2022-10-29T19:39:05.540Z,98907.00
2022-10-29T19:41:33.461Z,98911.00
2022-10-29T19:44:02.677Z,98915.00
2022-10-29T19:46:30.728Z,98915.00
2022-10-29T19:48:58.700Z,98912.00
2022-10-29T19:51:26.778Z,98907.00
2022-10-29T19:53:55.150Z,98915.00
2022-10-29T19:56:22.466Z,98915.00
2022-10-29T19:58:50.084Z,98914.00
2022-10-29T20:01:20.194Z,98914.00
2022-10-29T20:03:47.899Z,98900.00
2022-10-29T20:06:16.464Z,98917.00
2022-10-29T20:08:44.048Z,98925.00
2022-10-29T20:11:11.459Z,98913.00
2022-10-29T20:13:40.005Z,98914.00
2022-10-29T20:16:13.271Z,98918.00
2022-10-29T20:18:40.560Z,98915.00
2022-10-29T20:21:08.396Z,98916.00
2022-10-29T20:23:36.039Z,98917.00
2022-10-29T20:26:03.759Z,98913.00
2022-10-29T20:28:31.018Z,98913.00
2022-10-29T20:31:19.246Z,98929.00
2022-10-29T20:33:58.739Z,98917.00
2022-10-29T20:36:32.310Z,98924.00
2022-10-29T20:39:00.296Z,98925.00
2022-10-29T20:41:29.226Z,98922.00
2022-10-29T20:44:01.448Z,98922.00
2022-10-29T20:46:29.532Z,98919.00
2022-10-29T20:48:58.498Z,98915.00
2022-10-29T20:51:26.976Z,98913.00
2022-10-29T20:53:55.934Z,98923.00
2022-10-29T20:56:26.979Z,98927.00
2022-10-29T20:58:54.963Z,98927.00
2022-10-29T21:01:24.501Z,98930.00
2022-10-29T21:03:52.074Z,98924.00
2022-10-29T21:06:20.102Z,98925.00
2022-10-29T21:08:51.730Z,98924.00
2022-10-29T21:11:21.854Z,98928.00
2022-10-29T21:13:50.331Z,98924.00
2022-10-29T21:16:27.501Z,98933.00
2022-10-29T21:19:00.882Z,98927.00
2022-10-29T21:21:30.128Z,98923.00
2022-10-29T21:23:58.020Z,98919.00
2022-10-29T21:26:27.846Z,98916.00
2022-10-29T21:28:56.075Z,98921.00
2022-10-29T21:31:24.702Z,98923.00
2022-10-29T21:33:55.918Z,98916.00
2022-10-29T21:36:23.564Z,98914.00
2022-10-29T21:38:50.950Z,98910.00
2022-10-29T21:41:18.456Z,98910.00
2022-10-29T21:43:45.809Z,98910.00
2022-10-29T21:46:13.062Z,98910.00
2022-10-29T21:48:40.408Z,98910.00
2022-10-29T21:51:15.113Z,98901.00
2022-10-29T21:53:42.713Z,98904.00
2022-10-29T21:56:14.691Z,98894.00
2022-10-29T21:58:42.925Z,98908.00
2022-10-29T22:01:16.391Z,98906.00
2022-10-29T22:03:47.438Z,98912.00
2022-10-29T22:06:22.673Z,98908.00
2022-10-29T22:08:57.484Z,98907.00
2022-10-29T22:11:28.490Z,98901.00
2022-10-29T22:13:56.031Z,98912.00
2022-10-29T22:16:23.807Z,98913.00
2022-10-29T22:18:51.198Z,98913.00
2022-10-29T22:21:26.540Z,98903.00
2022-10-29T22:23:57.693Z,98906.00
2022-10-29T22:26:29.542Z,98908.00
2022-10-29T22:28:57.294Z,98909.00
2022-10-29T22:31:25.299Z,98909.00
2022-10-29T22:33:54.463Z,98904.00
2022-10-29T22:36:26.730Z,98904.00
2022-10-29T22:39:00.138Z,98905.00
2022-10-29T22:41:29.689Z,98902.00
2022-10-29T22:43:59.024Z,98906.00
2022-10-29T22:46:28.721Z,98894.00
2022-10-29T22:48:56.691Z,98891.00
2022-10-29T22:51:31.711Z,98898.00
2022-10-29T22:53:59.384Z,98892.00
2022-10-29T22:56:36.080Z,98892.00
2022-10-29T22:59:06.458Z,98891.00
2022-10-29T23:01:40.381Z,98884.00
2022-10-29T23:04:11.390Z,98888.00
2022-10-29T23:06:38.685Z,98891.00
2022-10-29T23:09:07.343Z,98879.00
2022-10-29T23:11:40.149Z,98884.00
2022-10-29T23:14:07.454Z,98883.00
2022-10-29T23:16:36.789Z,98874.00
2022-10-29T23:19:06.617Z,98873.00
2022-10-29T23:21:34.190Z,98876.00
2022-10-29T23:24:01.815Z,98872.00
2022-10-29T23:26:29.213Z,98873.00
2022-10-29T23:28:56.942Z,98872.00
2022-10-29T23:31:28.141Z,98871.00
2022-10-29T23:33:58.020Z,98874.00
2022-10-29T23:36:27.315Z,98871.00
2022-10-29T23:39:01.247Z,98876.00
2022-10-29T23:41:31.240Z,98877.00
2022-10-29T23:43:59.003Z,98871.00
2022-10-29T23:46:26.278Z,98865.00
2022-10-29T23:48:53.706Z,98859.00
2022-10-29T23:51:21.068Z,98859.00
2022-10-29T23:53:53.194Z,98860.00
2022-10-29T23:56:23.814Z,98857.00
2022-10-29T23:58:51.079Z,98850.00
